Terminal Aerodrome Forecast
Issued by NWS Paducah, KY

Home | Current Version | Previous Version | Text Only | Print | Product List | Glossary On
Versions: 1 2 3 4 5 6 7 8 9 10 11 12 13 14 15
000
FTUS43 KPAH 241720
TAFEVV
TAF
KEVV 241720Z 2418/2518 21007G17KT P6SM FEW035 SCT250
     FM242200 23009KT P6SM VCTS SCT045CB BKN250
     FM250300 20005KT P6SM SCT250=

USA.gov is the U.S. government's official web portal to all federal, state and local government web resources and services.